21 maja 2022

Czas Kod Pogoda Temp. Widoczność Chmury Wiatr METAR/SPECI
20:00
V
9 °C 32 km - 130°   130° 8 kt METAR CYYC 220200Z 13008KT 20SM SCT080 09/M07 A3021 RMK AC4 SLP264
19:00
V
9 °C 64 km 8.500 ft Var   Var 3 kt METAR CYYC 220100Z VRB03KT 40SM FEW050 SCT075 BKN085 BKN120 09/M08 A3022 RMK CU1AC4AC1AC1 CU TR TCU ASOCTD SLP269
18:00
V
9 °C 64 km 8.800 ft 140°   140° 4 kt METAR CYYC 220000Z 14004KT 120V200 40SM FEW078 BKN088 BKN120 BKN260 09/M08 A3023 RMK CU2AC3AC1CI1 CI TR LGT VIRGA ALQDS TCU ASOCTD SLP273
17:00
V
11 °C 48 km - 170°   170° 5 kt METAR CYYC 212300Z 17005KT 30SM SCT070 SCT090 SCT260 11/M07 A3024 RMK AC4AC1CI1 AC TR CI TR VIRGA W TCU ASOCTD SLP273
16:00
V
9 °C 40 km 8.000 ft 180°   180° 6 kt METAR CYYC 212200Z 18006KT 160V330 25SM SCT070TCU BKN080 BKN090 BKN260 09/M08 A3025 RMK TCU4AC1AC1CI1 CI TR VIRGA W SLP280
15:00
V
8 °C 40 km 8.500 ft 110°   110° 4 kt METAR CYYC 212100Z 11004KT 050V130 25SM SCT065TCU BKN085 08/M09 A3026 RMK TCU4AC1 VIRGA S-W / CU ASOCTD SLP282
14:00
V
9 °C 40 km 9.000 ft Var   Var 5 kt METAR CYYC 212000Z VRB05KT 25SM SCT070TCU BKN090 09/M09 A3026 RMK TCU3AC3 VIRGA SE + SW-NW SLP282
13:00
V
8 °C 40 km 8.000 ft 040°   040° 3 kt METAR CYYC 211900Z 04003KT 330V060 25SM BKN080 08/M09 A3027 RMK CU5 VIRGA E-W TCU ASOCTD SLP286
12:00
V
7 °C 48 km 26.000 ft 360°   360° 8 kt METAR CYYC 211800Z 36008KT 270V020 30SM FEW065 SCT120 BKN260 07/M08 A3027 RMK CU4AC1CC1 AC TR DIST SH E-W SLP288
11:00
V
8 °C 40 km 24.000 ft 020°   020° 9 kt METAR CYYC 211700Z 02009KT 330V050 25SM SCT050 SCT066 SCT120 BKN240 08/M07 A3028 RMK CU3AC1AS1CC2 AC TR AS TR DIST VIRGA S-W SLP288
10:00
V
7 °C 48 km - 030°   030° 3 kt METAR CYYC 211600Z 03003KT 330V050 30SM FEW030 SCT250 07/M07 A3028 RMK CU1CI2 DIST SH SW MTS SLP290
09:00
V
5 °C 56 km 28.000 ft 350°   350° 6 kt METAR CYYC 211500Z 35006KT 35SM FEW020TCU FEW090 SCT260 BKN280 05/M03 A3029 RMK TCU1AS1CI2CS3 TCU TR SW-W SLP295
08:00
V
4 °C 56 km 26.000 ft 350°   350° 7 kt METAR CYYC 211400Z 35007KT 35SM FEW090 FEW120 OVC260 04/M03 A3029 RMK AS1ACC1CS7 ACC TR HALO SLP294
07:00
V
2 °C 48 km 30.000 ft 350°   350° 6 kt METAR CYYC 211300Z 35006KT 30SM FEW120 OVC300 02/M03 A3028 RMK AC1CS8 AC TR SLP294
06:00
V
1 °C 32 km 26.000 ft 360°   360° 6 kt METAR CYYC 211200Z 36006KT 20SM FEW130 OVC260 01/M03 A3027 RMK AC1CS7 SLP290
05:00
V
1 °C 16 km 15.000 ft 340°   340° 5 kt METAR CYYC 211100Z 34005KT 10SM FEW067 FEW110 BKN150 BKN230 01/M03 A3026 RMK AC1AC2AS4CI1 AC TR CI TR SLP286
04:00
V
1 °C 16 km 6.800 ft 350°   350° 5 kt METAR CYYC 211000Z 35005KT 10SM BKN068 01/M03 A3026 RMK AC5 SLP285
03:10
V
2 °C 16 km 8.500 ft 350°   350° 5 kt METAR CYYC 210910Z 35005KT 10SM FEW068 BKN085 02/M03 A3026 RMK AC2AC4 T SLP283
01:00
V
3 °C 16 km 17.000 ft 340°   340° 6 kt METAR CYYC 210700Z 34006KT 10SM SCT057 BKN170 03/M03 A3025 RMK SC3AC2 SLP281
00:00
V
3 °C 11 km 6.800 ft 350°   350° 7 kt METAR CYYC 210600Z 35007KT 7SM BKN068 03/M02 A3025 RMK AC5 VIRGA ALQDS SLP282

20 maja 2022

Czas Kod Pogoda Temp. Widoczność Chmury Wiatr METAR/SPECI
23:00
V
4 °C 11 km 11.000 ft 330°   330° 7 kt METAR CYYC 210500Z 33007KT 7SM FEW079 BKN110 BKN160 04/M02 A3025 RMK AC2AC3AC1 VIRGA W - N SLP281
22:00
V
4 °C 11 km 9.700 ft 340°   340° 8 kt METAR CYYC 210400Z 34008KT 7SM BKN097 BKN220 04/M03 A3024 RMK AC5CI2 SH E - SW SLP277
21:00
V
5 °C 11 km 9.900 ft 340°   340° 9 kt METAR CYYC 210300Z 34009KT 7SM FEW058 BKN099 BKN230 05/M03 A3021 RMK SC1AC4CI1 SH SE - SW SLP269
20:00
V
6 °C 11 km 6.400 ft 360°   360° 18 25 kt METAR CYYC 210200Z 36018G25KT 7SM VCSH FEW054 OVC064 06/M06 A3020 RMK SC2SC6 SH S - W / CVCTV CLD EMBD SLP266
19:39
V
7 °C 23 km 10.000 ft 010°   010° 15 kt METAR CYYC 210139Z 01015KT 14SM -SHGS SCT050 BKN100 BKN260 07/M05 A3019 RMK SC4AC3CI1 CI TR CVCTV CLD EMBD SLP261
19:00
V
6 °C 32 km 9.500 ft 340°   340° 10 17 kt METAR CYYC 210100Z 34010G17KT 20SM FEW045TCU FEW075 SCT085 BKN095 BKN260 06/M02 A3019 RMK TCU1AC1AC2AC2CI1 TCU SE-W SLP261
18:00
V
8 °C 32 km 7.500 ft 010°   010° 14 23 kt METAR CYYC 210000Z 01014G23KT 20SM SCT040TCU BKN075 BKN260 08/M05 A3017 RMK TCU4AC2CI1 VCSH W SLP253
17:00
V
8 °C 40 km 26.000 ft 360°   360° 14 20 kt METAR CYYC 202300Z 36014G20KT 25SM FEW035TCU SCT050 SCT070 SCT095 BKN260 08/M03 A3017 RMK TCU2SC1AC1AC1CI2 AC TR TCU S SLP251
16:00
V
8 °C 32 km 5.000 ft 350°   350° 15 23 kt METAR CYYC 202200Z 35015G23KT 20SM BKN050 BKN065 BKN240 08/M05 A3016 RMK SC6SC1CI1 CI TR DIST SH SW-NW CVCTV CLD EMBD SLP249
15:00
V
7 °C 23 km 6.000 ft 010°   010° 17 24 kt METAR CYYC 202100Z 01017G24KT 14SM VCSH FEW045 BKN060 07/M05 A3016 RMK CU2SC5 VCSH S-NW TCU ASOCTD SLP249
14:00
V
7 °C 23 km 5.000 ft 020°   020° 20 kt METAR CYYC 202000Z 02020KT 14SM FEW015 BKN050 BKN070 07/M04 A3016 RMK CU1SC5AC1 TCU ASOCTD SLP248
13:41
V
7 °C 23 km 4.000 ft 010°   010° 17 kt METAR CYYC 201941Z 01017KT 14SM -SHSNRA FEW020 BKN040TCU BKN060 BKN260 07/M04 A3015 RMK CF1TCU6SC1CI1 CF TR CI TR SLP247
13:00
V
7 °C 23 km 3.500 ft 350°   350° 19 25 kt METAR CYYC 201900Z 35019G25KT 14SM -SHRA BKN035TCU BKN050 BKN075 BKN260 07/M03 A3015 RMK TCU5SC1AC1CI1 SC TR CI TR SLP246
12:36
V
6 °C 23 km 3.800 ft 020°   020° 19 25 kt METAR CYYC 201836Z 02019G25KT 14SM -SHRA BKN038TCU BKN055 06/M03 A3015 RMK TCU5CU1 SLP248
12:00
V
7 °C 24 km 5.000 ft 350°   350° 17 23 kt METAR CYYC 201800Z 35017G23KT 15SM FEW020CB SCT030TCU BKN050 BKN066 BKN260 07/00 A3015 RMK CB1TCU3SC1AC1CI2 SC TR AC TR OCNL-SHRA / CB CLD S MOVG SE SLP249
11:47
V
4 °C 19 km 7.500 ft 340°   340° 13 23 kt METAR CYYC 201747Z 34013G23KT 12SM -SHRA FEW015CB SCT025TCU BKN075 BKN100 BKN260 04/01 A3015 RMK CB2TCU2AC1AC1CI1 AC TR VIS S-SW 4 / CB CLD S-SW MOVG SE SLP252
11:34
M
3 °C 10 km 1.500 ft 010°   010° 16 24 kt METAR CYYC 201734Z 01016G24KT 6SM R35L/5500VP6000FT/N R35R/5500VP6000FT/D -SHSN BKN015TCU BKN025 BKN035 BKN260 03/M00 A3016 RMK TCU5CU1SC1CI1 SC TR CI TR VIS NW-E 12 SLP257
11:28
I
3 °C 3,2 km 1.500 ft 020°   020° 20 28 kt METAR CYYC 201728Z 02020G28KT 2SM -SHSN BKN015TCU 03/M02 A3016 RMK SN5TCU2 VIS N-E 4 SLP258
11:24
M
4 °C 8,0 km 2.000 ft 360°   360° 19 28 kt METAR CYYC 201724Z 36019G28KT 5SM -SHSNRA BKN020TCU 04/M02 A3016 RMK TCU7 VIS E 12 SLP254
11:15
V
6 °C 40 km 3.000 ft 350°   350° 15 26 kt METAR CYYC 201715Z 35015G26KT 25SM -SHGS BKN030TCU BKN040 BKN060 06/M01 A3015 RMK TCU7SC1SC1 SC TR SC TR VIS NW-N 7 SLP250
11:00
M
6 °C 48 km 2.800 ft 350°   350° 17 28 kt METAR CYYC 201700Z 35017G28KT 30SM VCSH FEW020 BKN028TCU BKN075 BKN260 06/M02 A3015 RMK CF1TCU4AC1CI1 AC TR VCSH N-SE SLP250
10:00
V
5 °C 40 km - 340°   340° 19 26 kt METAR CYYC 201600Z 34019G26KT 25SM FEW020 SCT025TCU SCT085 SCT230 05/M00 A3016 RMK CF2TCU2AC1CI1 AC TR CI TR DIST SH E + SW / TCU E SLP253
09:37
V
5 °C 48 km - 330°   330° 14 20 kt METAR CYYC 201537Z 33014G20KT 30SM SCT017 SCT025TCU SCT085 SCT230 05/01 A3016 RMK CF3TCU1AC1CI1 AC TR CI TR OCNL-SHRA / TCU CLD S SLP252
09:00
V
3 °C 23 km 4.000 ft 340°   340° 13 20 kt METAR CYYC 201500Z 34013G20KT 14SM -SHRA FEW015 SCT030 BKN040TCU BKN050 BKN080 03/00 A3016 RMK CF2SC2TCU3SC1AC1 SC TR AC TR SLP255
08:42
V
3 °C 23 km 7.000 ft 340°   340° 15 20 kt METAR CYYC 201442Z 34015G20KT 14SM -SHRA FEW028 SCT040 SCT050 BKN070 03/M00 A3016 RMK CF1SC2SC1AC3 CVCTV CLD EMBD SLP254
08:00
V
2 °C 24 km 7.500 ft 320°   320° 11 kt METAR CYYC 201400Z 32011KT 15SM FEW045 FEW066 BKN075 02/M01 A3014 RMK CF1ACC1AC6 CF TR DIST SH N SLP250
07:00
V
2 °C 16 km 5.700 ft 350°   350° 16 kt METAR CYYC 201300Z 35016KT 10SM VCSH FEW013 SCT034 BKN057 BKN087 02/00 A3013 RMK CF1SC3SC3AC1 CF TR SH SW-NW/TCU ASOCTD SW-NW MOVG S SLP243
06:00
V
2 °C 19 km 3.400 ft 350°   350° 17 kt METAR CYYC 201200Z 35017KT 12SM VCSH FEW012 SCT021 BKN034 02/00 A3011 RMK CF1SC3SC4 CF TR SH S-SW+NW/TCU ASOCTC S-SW+NW MOVG S SLP236
05:49
V
2 °C 16 km 4.100 ft 350°   350° 13 22 kt METAR CYYC 201149Z 35013G22KT 10SM VCSH FEW012 SCT021 BKN041 02/01 A3010 RMK CF1SC3SC4 CF TR TCU ASOCTD S-SW MOVG S SLP234
05:08
M
2 °C 14 km 2.100 ft 350°   350° 15 22 kt METAR CYYC 201108Z 35015G22KT 9SM -SHRA FEW011 BKN021 BKN034 02/01 A3009 RMK CF1SC6SC2 CF TR CVCTV CLD EMBD SLP233
05:00
M
3 °C 16 km 2.100 ft 350°   350° 14 21 kt METAR CYYC 201100Z 35014G21KT 10SM FEW011 BKN021 OVC035 03/01 A3009 RMK CF1SC6SC2 CF TR SLP231
04:00
M
2 °C 16 km 2.100 ft 350°   350° 15 21 kt METAR CYYC 201000Z 35015G21KT 10SM SCT011 OVC021 02/01 A3008 RMK SF3SC5 SLP224
03:32
M
2 °C 16 km 1.400 ft 350°   350° 15 21 kt METAR CYYC 200932Z 35015G21KT 10SM FEW010 BKN014 OVC032 02/01 A3007 RMK CF1SC5SC3 CF TR SLP222
03:00
M
3 °C 16 km 2.500 ft 350°   350° 16 22 kt METAR CYYC 200900Z 35016G22KT 10SM FEW012 BKN025 BKN048 03/01 A3006 RMK CF1SC5SC2 CF TR SLP217
02:00
M
3 °C 16 km 2.100 ft 340°   340° 11 17 kt METAR CYYC 200800Z 34011G17KT 10SM FEW011 BKN021 BKN034 03/01 A3005 RMK CF1SC5SC2 CF TR SLP211
01:43
M
3 °C 16 km 2.400 ft 350°   350° 13 18 kt METAR CYYC 200743Z 35013G18KT 10SM VCSH BKN024 BKN035 03/01 A3004 RMK SC5SC2 SH S SLP211
01:32
M
3 °C 14 km 2.100 ft 350°   350° 11 kt METAR CYYC 200732Z 35011KT 9SM -SHRA FEW011 BKN021 BKN034 03/01 A3004 RMK CF1SC5SC3 CF TR CVCTV CLD EMBD SLP211
01:00
M
3 °C 16 km 2.100 ft 350°   350° 15 kt METAR CYYC 200700Z 35015KT 10SM VCSH FEW011 BKN021 BKN044 03/02 A3003 RMK CF1SC6SC1 CF TR SH S/OCNL -SHRA SLP209
00:43
M
3 °C 11 km 1.800 ft 350°   350° 13 19 kt METAR CYYC 200643Z 35013G19KT 7SM -SHRA FEW009 BKN018 BKN056 03/01 A3004 RMK CF2SC3SC2 CVCTV CLD EMBD/CLRG FM NW-N SLP210
00:00
I
2 °C 8,0 km 900 ft 350°   350° 12 kt METAR CYYC 200600Z 35012KT 5SM -SHRA BR BKN009 OVC026 02/01 A3003 RMK SC6SC2 CVCTV CLD EMBD SLP208

19 maja 2022

Czas Kod Pogoda Temp. Widoczność Chmury Wiatr METAR/SPECI
23:47
M
2 °C 8,0 km 1.000 ft 350°   350° 13 18 kt METAR CYYC 200547Z 35013G18KT 5SM -SHRA BR BKN010 OVC037 02/01 A3002 RMK SC5SC3 CVCTV CLD EMBD SLP207
23:33
M
2 °C 10 km 1.400 ft 350°   350° 15 kt METAR CYYC 200533Z 35015KT 6SM -SHRASN BR BKN014 OVC033 02/01 A3002 RMK SC5SC3 CVCTV CLD EMBD SLP206
23:26
M
2 °C 16 km 1.600 ft 340°   340° 14 kt METAR CYYC 200526Z 34014KT 10SM -SHRA FEW010 BKN016 OVC033 02/01 A3002 RMK CF2SC5SC1 VIS SW-W 5/CVCTV CLD EMBD SLP204
23:00
M
2 °C 19 km 1.800 ft 340°   340° 16 22 kt METAR CYYC 200500Z 34016G22KT 12SM VCSH FEW010 BKN018 OVC037 02/01 A3001 RMK CF1SC5SC2 SH SW-W/VIS SW-W 6 SLP200
22:42
V
2 °C 24 km 3.300 ft 350°   350° 18 27 kt METAR CYYC 200442Z 35018G27KT 15SM FEW010 SCT014 BKN033 OVC058 02/01 A3000 RMK CF1SC3SC3SC1 SLP196
22:29
V
3 °C 24 km 4.300 ft 350°   350° 17 22 kt METAR CYYC 200429Z 35017G22KT 15SM SCT010 BKN043 OVC059 03/01 A3000 RMK SF3SC3SC2 CF N MOVG RPDLY S SLP194
22:00
V
3 °C 19 km 3.600 ft 350°   350° 18 29 kt METAR CYYC 200400Z 35018G29KT 12SM VCSH BKN036 OVC059 03/01 A2998 RMK SC6SC2 SH SW+NW/CVCTV CLD EMBD SLP187
21:00
V
3 °C 19 km 6.000 ft 350°   350° 18 kt METAR CYYC 200300Z 35018KT 12SM FEW011 SCT046 OVC060 03/01 A2995 RMK CF1SC3SC5 CF TR VCSH SW+NW SLP176
20:17
M
3 °C 16 km 2.300 ft 350°   350° 18 25 kt METAR CYYC 200217Z 35018G25KT 10SM VCSH SCT011 BKN023 OVC046 03/01 A2993 RMK CF3SC2SC3 SH S-NW/OCNL -SHRA/CVCTV CLD EMBD MOVG S SLP170
20:00
M
3 °C 24 km 1.200 ft 350°   350° 21 26 kt METAR CYYC 200200Z 35021G26KT 15SM BKN012 OVC042 03/01 A2992 RMK CF5SC3 CVCTV CLD EMBD SLP167
19:54
M
3 °C 19 km 1.300 ft 340°   340° 18 24 kt METAR CYYC 200154Z 34018G24KT 12SM -SHRA BKN013 OVC042 03/01 A2991 RMK CF5SC3 CVCTV CLD EMBD SLP166
19:20
M
4 °C 16 km 1.200 ft 350°   350° 16 kt METAR CYYC 200120Z 35016KT 10SM VCSH BKN012 BKN029 OVC039 04/02 A2990 RMK CF5SC2SC1 SH E MOVG S / CVCTV CLD EMBD SLP161
19:00
V
4 °C 16 km 3.900 ft 360°   360° 15 24 kt METAR CYYC 200100Z 36015G24KT 10SM VCSH SCT011 SCT025 OVC039 04/02 A2989 RMK CF3SC1SC4 SH E MOVG S / CVCTV CLD EMBD SLP157
18:33
V
4 °C 16 km 4.100 ft 350°   350° 21 28 kt METAR CYYC 200033Z 35021G28KT 10SM -SHRA SCT012 BKN041 OVC078 04/02 A2987 RMK CF3SC4AC1 CVCTV CLD EMBD PRESRR SLP152
18:00
V
4 °C 16 km 4.000 ft 340°   340° 17 24 kt METAR CYYC 200000Z 34017G24KT 10SM FEW009 SCT029 BKN040 BKN062 04/03 A2985 RMK CF2SC1SC3SC1 SLP143
17:35
V
3 °C 16 km 4.100 ft 340°   340° 17 23 kt METAR CYYC 192335Z 34017G23KT 10SM FEW007 BKN041 OVC056 03/02 A2983 RMK CF2SC4SC2 SH SW MOVG SW SLP140
17:25
M
3 °C 16 km 2.900 ft 350°   350° 18 26 kt METAR CYYC 192325Z 35018G26KT 10SM -SHRA BR SCT008 BKN029 OVC043 03/02 A2983 RMK CF4SC3SC1 VIS 6 SW-NW / VIS IMPRG RPDLY / CVCTV CLD EMBD SLP137
17:00
M
3 °C 8,0 km 1.000 ft 360°   360° 23 31 kt METAR CYYC 192300Z CCA 36023G31KT 5SM -SHRA BR BKN010 OVC021 03/02 A2982 RMK CF5SC3 CVCTV CLD EMBD SLP134
16:26
M
5 °C 11 km 1.300 ft 360°   360° 24 30 kt METAR CYYC 192226Z 36024G30KT 7SM -SHRA BKN013 OVC020 05/02 A2979 RMK SC6SC2 CVCTV CLD EMBD PRESRR SLP123
16:00
M
5 °C 14 km 1.500 ft 350°   350° 26 34 kt METAR CYYC 192200Z 35026G34KT 9SM -SHRA BKN015 OVC026 05/03 A2977 RMK SC6SC2 CVCTV CLD EMBD SLP113
15:30
M
5 °C 13 km 1.500 ft 340°   340° 23 37 kt METAR CYYC 192130Z 34023G37KT 8SM -SHRA BKN015 OVC030 05/02 A2974 RMK SC7SC1 CVCTV CLD EMBD SLP103
15:00
M
6 °C 16 km 1.600 ft 350°   350° 25 36 kt METAR CYYC 192100Z 35025G36KT 10SM -RA BKN016 OVC030 06/02 A2972 RMK SC7SC1 SLP096
14:00
M
5 °C 14 km 1.400 ft 340°   340° 24 33 kt METAR CYYC 192000Z 34024G33KT 9SM -RA BKN014 OVC032 05/02 A2969 RMK SC7SC1 SLP084
Starsze dane

Pobierz naszą aplikację

Łatwy dostęp do całej pogody lotniczej na telefonie komórkowym i tablecie.
Z wieloma funkcjami niedostępnymi na stronie internetowej, takimi jak wsparcie offline i osobista lista lotnisk.

My i osoby trzecie śledzimy twoje zachowanie w internecie na naszej stronie za pomocą plików cookie. Jeśli kontynuujesz, zakładamy, że zgadzasz się z naszą polityką plików cookie. Dowiedz się więcej